sensor_id;sensor_type;location;lat;lon;timestamp;pressure;altitude;pressure_sealevel;temperature;humidity
72336;BME280;65062;48.446;8.834;2023-04-19T00:02:54;97991.28;;;9.47;77.81
72336;BME280;65062;48.446;8.834;2023-04-19T00:05:55;97992.91;;;9.64;77.82
72336;BME280;65062;48.446;8.834;2023-04-19T00:08:58;97982.00;;;9.53;78.06
72336;BME280;65062;48.446;8.834;2023-04-19T00:11:58;97986.91;;;9.56;77.73
72336;BME280;65062;48.446;8.834;2023-04-19T00:14:58;97983.59;;;9.62;77.33
72336;BME280;65062;48.446;8.834;2023-04-19T00:17:58;97984.25;;;9.64;76.96
72336;BME280;65062;48.446;8.834;2023-04-19T00:20:59;97980.50;;;9.58;76.97
72336;BME280;65062;48.446;8.834;2023-04-19T00:24:01;97979.69;;;9.58;77.21
72336;BME280;65062;48.446;8.834;2023-04-19T00:27:02;97978.56;;;9.52;77.39
72336;BME280;65062;48.446;8.834;2023-04-19T00:30:03;97970.06;;;9.50;77.01
72336;BME280;65062;48.446;8.834;2023-04-19T00:33:03;97979.06;;;9.40;77.34
72336;BME280;65062;48.446;8.834;2023-04-19T00:36:04;97977.59;;;9.37;77.93
72336;BME280;65062;48.446;8.834;2023-04-19T00:39:04;97970.56;;;9.46;78.34
72336;BME280;65062;48.446;8.834;2023-04-19T00:42:05;97969.44;;;9.48;77.25
72336;BME280;65062;48.446;8.834;2023-04-19T00:45:05;97965.88;;;9.33;78.26
72336;BME280;65062;48.446;8.834;2023-04-19T00:48:06;97969.31;;;9.34;78.61
72336;BME280;65062;48.446;8.834;2023-04-19T00:51:07;97967.50;;;9.34;77.92
72336;BME280;65062;48.446;8.834;2023-04-19T00:54:09;97967.03;;;9.31;78.22
72336;BME280;65062;48.446;8.834;2023-04-19T00:57:10;97956.06;;;9.19;79.92
72336;BME280;65062;48.446;8.834;2023-04-19T01:00:10;97956.53;;;9.39;77.74
72336;BME280;65062;48.446;8.834;2023-04-19T01:03:11;97949.38;;;9.41;78.64
72336;BME280;65062;48.446;8.834;2023-04-19T01:06:13;97957.38;;;9.31;78.03
72336;BME280;65062;48.446;8.834;2023-04-19T01:09:13;97952.00;;;9.25;78.77
72336;BME280;65062;48.446;8.834;2023-04-19T01:12:14;97950.06;;;9.19;79.53
72336;BME280;65062;48.446;8.834;2023-04-19T01:15:14;97948.56;;;9.32;77.40
72336;BME280;65062;48.446;8.834;2023-04-19T01:18:15;97943.84;;;9.28;78.18
72336;BME280;65062;48.446;8.834;2023-04-19T01:21:16;97940.75;;;9.16;78.22
72336;BME280;65062;48.446;8.834;2023-04-19T01:24:17;97948.25;;;9.27;78.65
72336;BME280;65062;48.446;8.834;2023-04-19T01:27:18;97945.28;;;9.38;77.58
72336;BME280;65062;48.446;8.834;2023-04-19T01:30:19;97941.25;;;9.28;78.18
72336;BME280;65062;48.446;8.834;2023-04-19T01:33:20;97939.44;;;9.20;78.59
72336;BME280;65062;48.446;8.834;2023-04-19T01:36:20;97932.41;;;9.21;78.10
72336;BME280;65062;48.446;8.834;2023-04-19T01:39:21;97940.91;;;9.23;78.89
72336;BME280;65062;48.446;8.834;2023-04-19T01:42:21;97933.44;;;9.12;79.97
72336;BME280;65062;48.446;8.834;2023-04-19T01:45:22;97930.16;;;9.02;79.81
72336;BME280;65062;48.446;8.834;2023-04-19T01:48:22;97926.88;;;9.16;79.89
72336;BME280;65062;48.446;8.834;2023-04-19T01:51:22;97924.28;;;9.16;77.79
72336;BME280;65062;48.446;8.834;2023-04-19T01:54:23;97932.09;;;9.16;78.86
72336;BME280;65062;48.446;8.834;2023-04-19T01:57:23;97923.16;;;9.10;79.37
72336;BME280;65062;48.446;8.834;2023-04-19T02:00:23;97921.53;;;9.01;79.52
72336;BME280;65062;48.446;8.834;2023-04-19T02:03:24;97920.84;;;9.15;79.34
72336;BME280;65062;48.446;8.834;2023-04-19T02:06:24;97910.06;;;9.18;78.27
72336;BME280;65062;48.446;8.834;2023-04-19T02:09:26;97917.28;;;9.08;78.58
72336;BME280;65062;48.446;8.834;2023-04-19T02:12:27;97908.78;;;9.06;78.98
72336;BME280;65062;48.446;8.834;2023-04-19T02:15:30;97917.44;;;8.99;79.56
72336;BME280;65062;48.446;8.834;2023-04-19T02:18:31;97911.09;;;8.93;80.81
72336;BME280;65062;48.446;8.834;2023-04-19T02:21:31;97913.38;;;8.88;81.11
72336;BME280;65062;48.446;8.834;2023-04-19T02:24:32;97902.94;;;8.88;80.97
72336;BME280;65062;48.446;8.834;2023-04-19T02:27:32;97895.41;;;9.01;80.78
72336;BME280;65062;48.446;8.834;2023-04-19T02:30:32;97903.88;;;9.03;80.26
72336;BME280;65062;48.446;8.834;2023-04-19T02:33:33;97897.03;;;9.10;78.81
72336;BME280;65062;48.446;8.834;2023-04-19T02:36:33;97901.09;;;9.05;79.26
72336;BME280;65062;48.446;8.834;2023-04-19T02:39:33;97895.72;;;9.06;78.69
72336;BME280;65062;48.446;8.834;2023-04-19T02:42:34;97895.09;;;9.04;78.24
72336;BME280;65062;48.446;8.834;2023-04-19T02:45:35;97905.19;;;8.99;79.27
72336;BME280;65062;48.446;8.834;2023-04-19T02:48:35;97894.47;;;8.86;80.58
72336;BME280;65062;48.446;8.834;2023-04-19T02:51:35;97891.34;;;8.83;80.82
72336;BME280;65062;48.446;8.834;2023-04-19T02:54:36;97901.16;;;8.73;81.56
72336;BME280;65062;48.446;8.834;2023-04-19T02:57:36;97893.00;;;8.84;80.68
72336;BME280;65062;48.446;8.834;2023-04-19T03:00:36;97891.22;;;8.76;81.67
72336;BME280;65062;48.446;8.834;2023-04-19T03:03:37;97896.44;;;8.76;81.61
72336;BME280;65062;48.446;8.834;2023-04-19T03:06:37;97892.84;;;8.77;81.67
72336;BME280;65062;48.446;8.834;2023-04-19T03:09:38;97893.31;;;8.73;80.63
72336;BME280;65062;48.446;8.834;2023-04-19T03:12:38;97879.31;;;8.66;81.01
72336;BME280;65062;48.446;8.834;2023-04-19T03:15:38;97876.03;;;8.47;81.91
72336;BME280;65062;48.446;8.834;2023-04-19T03:18:39;97874.56;;;8.45;82.15
72336;BME280;65062;48.446;8.834;2023-04-19T03:21:39;97873.75;;;8.28;82.74
72336;BME280;65062;48.446;8.834;2023-04-19T03:24:40;97879.16;;;8.35;83.32
72336;BME280;65062;48.446;8.834;2023-04-19T03:27:40;97870.28;;;8.20;83.83
72336;BME280;65062;48.446;8.834;2023-04-19T03:30:41;97872.38;;;8.16;83.99
72336;BME280;65062;48.446;8.834;2023-04-19T03:33:41;97874.03;;;8.17;83.82
72336;BME280;65062;48.446;8.834;2023-04-19T03:36:42;97873.06;;;8.18;84.54
72336;BME280;65062;48.446;8.834;2023-04-19T03:39:42;97869.84;;;8.24;84.01
72336;BME280;65062;48.446;8.834;2023-04-19T03:42:42;97871.59;;;8.16;84.37
72336;BME280;65062;48.446;8.834;2023-04-19T03:45:43;97863.44;;;8.11;85.50
72336;BME280;65062;48.446;8.834;2023-04-19T03:48:43;97862.91;;;8.07;85.38
72336;BME280;65062;48.446;8.834;2023-04-19T03:51:43;97864.06;;;8.05;85.17
72336;BME280;65062;48.446;8.834;2023-04-19T03:54:44;97864.22;;;8.03;84.79
72336;BME280;65062;48.446;8.834;2023-04-19T03:57:44;97866.69;;;8.05;84.73
72336;BME280;65062;48.446;8.834;2023-04-19T04:00:45;97869.59;;;8.02;84.34
72336;BME280;65062;48.446;8.834;2023-04-19T04:03:45;97861.63;;;8.03;85.38
72336;BME280;65062;48.446;8.834;2023-04-19T04:06:46;97862.44;;;8.04;85.33
72336;BME280;65062;48.446;8.834;2023-04-19T04:09:46;97864.38;;;7.94;85.31
72336;BME280;65062;48.446;8.834;2023-04-19T04:12:47;97864.88;;;7.97;85.22
72336;BME280;65062;48.446;8.834;2023-04-19T04:15:48;97866.34;;;8.00;85.00
72336;BME280;65062;48.446;8.834;2023-04-19T04:18:48;97866.66;;;7.89;85.16
72336;BME280;65062;48.446;8.834;2023-04-19T04:21:49;97871.19;;;7.87;85.95
72336;BME280;65062;48.446;8.834;2023-04-19T04:24:49;97861.59;;;7.87;85.88
72336;BME280;65062;48.446;8.834;2023-04-19T04:27:50;97864.06;;;7.97;84.67
72336;BME280;65062;48.446;8.834;2023-04-19T04:30:51;97861.94;;;7.92;85.78
72336;BME280;65062;48.446;8.834;2023-04-19T04:33:51;97860.31;;;7.99;84.47
72336;BME280;65062;48.446;8.834;2023-04-19T04:36:54;97867.81;;;8.10;83.95
72336;BME280;65062;48.446;8.834;2023-04-19T04:39:54;97859.53;;;8.07;85.13
72336;BME280;65062;48.446;8.834;2023-04-19T04:42:55;97867.88;;;8.26;84.28
72336;BME280;65062;48.446;8.834;2023-04-19T04:45:55;97870.00;;;8.31;82.34
72336;BME280;65062;48.446;8.834;2023-04-19T04:48:56;97866.69;;;8.21;82.89
72336;BME280;65062;48.446;8.834;2023-04-19T04:51:57;97865.41;;;8.17;84.67
72336;BME280;65062;48.446;8.834;2023-04-19T04:54:57;97867.81;;;8.10;84.18
72336;BME280;65062;48.446;8.834;2023-04-19T04:57:58;97869.94;;;8.15;83.98
72336;BME280;65062;48.446;8.834;2023-04-19T05:00:58;97866.84;;;8.19;84.29
72336;BME280;65062;48.446;8.834;2023-04-19T05:03:59;97868.66;;;8.19;84.66
72336;BME280;65062;48.446;8.834;2023-04-19T05:06:59;97875.19;;;8.31;84.21
72336;BME280;65062;48.446;8.834;2023-04-19T05:10:00;97876.84;;;8.32;84.71
72336;BME280;65062;48.446;8.834;2023-04-19T05:13:00;97879.31;;;8.49;84.12
72336;BME280;65062;48.446;8.834;2023-04-19T05:16:01;97874.09;;;8.49;82.91
72336;BME280;65062;48.446;8.834;2023-04-19T05:19:01;97883.06;;;8.47;82.18
72336;BME280;65062;48.446;8.834;2023-04-19T05:22:01;97876.03;;;8.47;81.59
72336;BME280;65062;48.446;8.834;2023-04-19T05:25:02;97886.63;;;8.62;82.23
72336;BME280;65062;48.446;8.834;2023-04-19T05:28:03;97887.63;;;8.61;82.65
72336;BME280;65062;48.446;8.834;2023-04-19T05:31:03;97886.31;;;8.65;80.88
72336;BME280;65062;48.446;8.834;2023-04-19T05:34:04;97883.72;;;8.73;80.29
72336;BME280;65062;48.446;8.834;2023-04-19T05:37:04;97885.66;;;8.79;79.79
72336;BME280;65062;48.446;8.834;2023-04-19T05:40:05;97884.69;;;8.88;79.98
72336;BME280;65062;48.446;8.834;2023-04-19T05:43:08;97882.06;;;8.80;79.46
72336;BME280;65062;48.446;8.834;2023-04-19T05:46:09;97884.84;;;8.87;80.11
72336;BME280;65062;48.446;8.834;2023-04-19T05:49:10;97886.31;;;8.89;79.47
72336;BME280;65062;48.446;8.834;2023-04-19T05:52:10;97893.47;;;8.95;80.57
72336;BME280;65062;48.446;8.834;2023-04-19T05:55:11;97892.16;;;8.99;78.86
72336;BME280;65062;48.446;8.834;2023-04-19T05:58:11;97888.41;;;8.94;80.20
72336;BME280;65062;48.446;8.834;2023-04-19T06:01:11;97895.59;;;9.00;79.28
72336;BME280;65062;48.446;8.834;2023-04-19T06:04:12;97897.69;;;8.96;79.26
72336;BME280;65062;48.446;8.834;2023-04-19T06:07:12;97895.25;;;9.03;79.10
72336;BME280;65062;48.446;8.834;2023-04-19T06:10:13;97901.78;;;9.07;78.33
72336;BME280;65062;48.446;8.834;2023-04-19T06:13:14;97904.22;;;9.08;78.56
72336;BME280;65062;48.446;8.834;2023-04-19T06:16:15;97901.44;;;9.10;78.94
72336;BME280;65062;48.446;8.834;2023-04-19T06:19:15;97902.56;;;9.15;78.70
72336;BME280;65062;48.446;8.834;2023-04-19T06:22:16;97903.84;;;9.19;79.22
72336;BME280;65062;48.446;8.834;2023-04-19T06:25:16;97907.16;;;9.13;78.78
72336;BME280;65062;48.446;8.834;2023-04-19T06:28:17;97906.63;;;9.18;78.88
72336;BME280;65062;48.446;8.834;2023-04-19T06:31:17;97903.84;;;9.19;78.05
72336;BME280;65062;48.446;8.834;2023-04-19T06:34:18;97912.34;;;9.21;78.49
72336;BME280;65062;48.446;8.834;2023-04-19T06:37:18;97914.63;;;9.24;77.92
72336;BME280;65062;48.446;8.834;2023-04-19T06:40:18;97910.69;;;9.28;77.78
72336;BME280;65062;48.446;8.834;2023-04-19T06:43:19;97908.75;;;9.30;80.21
72336;BME280;65062;48.446;8.834;2023-04-19T06:46:20;97911.53;;;9.21;78.71
72336;BME280;65062;48.446;8.834;2023-04-19T06:49:20;97904.00;;;9.26;78.21
72336;BME280;65062;48.446;8.834;2023-04-19T06:52:22;97907.41;;;9.34;78.36
72336;BME280;65062;48.446;8.834;2023-04-19T06:55:22;97908.25;;;9.35;77.75
72336;BME280;65062;48.446;8.834;2023-04-19T06:58:22;97902.31;;;9.49;77.05
72336;BME280;65062;48.446;8.834;2023-04-19T07:01:23;97904.06;;;9.64;76.76
72336;BME280;65062;48.446;8.834;2023-04-19T07:04:25;97899.09;;;9.77;76.17
72336;BME280;65062;48.446;8.834;2023-04-19T07:07:25;97901.13;;;9.98;76.09
72336;BME280;65062;48.446;8.834;2023-04-19T07:10:26;97898.81;;;10.03;74.90
72336;BME280;65062;48.446;8.834;2023-04-19T07:13:26;97895.56;;;10.01;74.66
72336;BME280;65062;48.446;8.834;2023-04-19T07:16:27;97890.41;;;10.23;73.81
72336;BME280;65062;48.446;8.834;2023-04-19T07:19:27;97887.94;;;10.44;72.12
72336;BME280;65062;48.446;8.834;2023-04-19T07:22:28;97893.56;;;10.56;73.83
72336;BME280;65062;48.446;8.834;2023-04-19T07:25:28;97895.91;;;10.51;72.22
72336;BME280;65062;48.446;8.834;2023-04-19T07:28:28;97889.63;;;10.37;72.62
72336;BME280;65062;48.446;8.834;2023-04-19T07:31:29;97890.03;;;10.26;73.48
72336;BME280;65062;48.446;8.834;2023-04-19T07:34:29;97884.41;;;10.37;74.20
72336;BME280;65062;48.446;8.834;2023-04-19T07:37:30;97886.19;;;10.37;73.31
72336;BME280;65062;48.446;8.834;2023-04-19T07:40:30;97882.81;;;10.28;72.06
72336;BME280;65062;48.446;8.834;2023-04-19T07:43:30;97883.84;;;10.19;73.05
72336;BME280;65062;48.446;8.834;2023-04-19T07:46:31;97883.06;;;10.19;72.73
72336;BME280;65062;48.446;8.834;2023-04-19T07:49:31;97882.88;;;10.20;74.45
72336;BME280;65062;48.446;8.834;2023-04-19T07:52:33;97883.50;;;10.22;72.53
72336;BME280;65062;48.446;8.834;2023-04-19T07:55:33;97884.50;;;10.21;72.63
72336;BME280;65062;48.446;8.834;2023-04-19T07:58:37;97883.75;;;10.13;73.05
72336;BME280;65062;48.446;8.834;2023-04-19T08:01:38;97878.69;;;10.03;73.44
72336;BME280;65062;48.446;8.834;2023-04-19T08:04:38;97876.72;;;10.05;74.52
72336;BME280;65062;48.446;8.834;2023-04-19T08:07:39;97877.59;;;9.98;73.83
72336;BME280;65062;48.446;8.834;2023-04-19T08:10:39;97871.19;;;10.00;73.58
72336;BME280;65062;48.446;8.834;2023-04-19T08:13:40;97877.09;;;9.94;74.17
72336;BME280;65062;48.446;8.834;2023-04-19T08:16:40;97866.78;;;10.01;75.55
72336;BME280;65062;48.446;8.834;2023-04-19T08:19:40;97869.69;;;10.14;73.50
72336;BME280;65062;48.446;8.834;2023-04-19T08:22:41;97865.13;;;10.08;74.78
72336;BME280;65062;48.446;8.834;2023-04-19T08:25:41;97868.69;;;10.15;73.66
72336;BME280;65062;48.446;8.834;2023-04-19T08:28:41;97864.94;;;10.17;73.24
72336;BME280;65062;48.446;8.834;2023-04-19T08:31:42;97866.06;;;10.15;75.05
72336;BME280;65062;48.446;8.834;2023-04-19T08:34:43;97868.06;;;10.13;73.77
72336;BME280;65062;48.446;8.834;2023-04-19T08:37:43;97866.72;;;10.17;72.94
72336;BME280;65062;48.446;8.834;2023-04-19T08:40:51;97871.31;;;10.37;72.06
72336;BME280;65062;48.446;8.834;2023-04-19T08:43:51;97869.03;;;10.57;72.21
72336;BME280;65062;48.446;8.834;2023-04-19T08:46:53;97868.03;;;10.81;71.26
72336;BME280;65062;48.446;8.834;2023-04-19T08:49:59;97874.38;;;11.01;71.42
72336;BME280;65062;48.446;8.834;2023-04-19T08:53:00;97865.59;;;10.94;69.82
72336;BME280;65062;48.446;8.834;2023-04-19T08:56:01;97870.31;;;11.13;69.04
72336;BME280;65062;48.446;8.834;2023-04-19T08:59:02;97863.69;;;10.88;70.64
72336;BME280;65062;48.446;8.834;2023-04-19T09:02:02;97862.25;;;10.85;69.54
72336;BME280;65062;48.446;8.834;2023-04-19T09:05:03;97859.19;;;11.11;69.20
72336;BME280;65062;48.446;8.834;2023-04-19T09:08:23;97857.22;;;11.13;68.31
72336;BME280;65062;48.446;8.834;2023-04-19T09:11:36;97858.13;;;11.20;68.85
72336;BME280;65062;48.446;8.834;2023-04-19T09:14:43;97851.88;;;11.21;67.65
72336;BME280;65062;48.446;8.834;2023-04-19T09:18:02;97856.34;;;11.20;69.19
72336;BME280;65062;48.446;8.834;2023-04-19T09:21:02;97849.72;;;11.39;68.93
72336;BME280;65062;48.446;8.834;2023-04-19T09:24:03;97855.31;;;11.65;67.81
72336;BME280;65062;48.446;8.834;2023-04-19T09:27:04;97842.31;;;11.57;65.55
72336;BME280;65062;48.446;8.834;2023-04-19T09:30:05;97842.13;;;11.58;68.14
72336;BME280;65062;48.446;8.834;2023-04-19T09:33:06;97847.53;;;11.86;64.16
72336;BME280;65062;48.446;8.834;2023-04-19T09:36:07;97840.72;;;11.91;66.78
72336;BME280;65062;48.446;8.834;2023-04-19T09:39:08;97835.50;;;12.12;65.35
72336;BME280;65062;48.446;8.834;2023-04-19T09:42:09;97840.84;;;12.19;66.13
72336;BME280;65062;48.446;8.834;2023-04-19T09:45:10;97827.75;;;12.25;64.41
72336;BME280;65062;48.446;8.834;2023-04-19T09:48:12;97822.13;;;12.71;64.60
72336;BME280;65062;48.446;8.834;2023-04-19T09:51:12;97817.53;;;13.41;61.05
72336;BME280;65062;48.446;8.834;2023-04-19T09:54:14;97806.81;;;14.09;58.06
72336;BME280;65062;48.446;8.834;2023-04-19T09:57:15;97812.47;;;13.99;59.90
72336;BME280;65062;48.446;8.834;2023-04-19T10:00:16;97802.53;;;13.82;59.59
72336;BME280;65062;48.446;8.834;2023-04-19T10:03:17;97807.34;;;13.78;58.07
72336;BME280;65062;48.446;8.834;2023-04-19T10:06:18;97809.16;;;13.71;57.30
72336;BME280;65062;48.446;8.834;2023-04-19T10:09:20;97806.56;;;13.31;60.04
72336;BME280;65062;48.446;8.834;2023-04-19T10:12:25;97801.06;;;13.26;59.21
72336;BME280;65062;48.446;8.834;2023-04-19T10:15:26;97792.28;;;13.12;60.23
72336;BME280;65062;48.446;8.834;2023-04-19T10:18:28;97798.47;;;13.32;59.59
72336;BME280;65062;48.446;8.834;2023-04-19T10:21:29;97797.41;;;13.27;59.11
72336;BME280;65062;48.446;8.834;2023-04-19T10:24:30;97794.53;;;13.15;62.02
72336;BME280;65062;48.446;8.834;2023-04-19T10:27:33;97791.75;;;12.96;62.61
72336;BME280;65062;48.446;8.834;2023-04-19T10:30:33;97786.50;;;12.96;61.01
72336;BME280;65062;48.446;8.834;2023-04-19T10:33:35;97786.13;;;13.26;64.04
72336;BME280;65062;48.446;8.834;2023-04-19T10:36:36;97785.00;;;13.48;60.63
72336;BME280;65062;48.446;8.834;2023-04-19T10:39:41;97770.88;;;13.09;59.99
72336;BME280;65062;48.446;8.834;2023-04-19T10:49:22;97765.56;;;14.35;58.12
72336;BME280;65062;48.446;8.834;2023-04-19T10:52:26;97762.13;;;14.54;58.72
72336;BME280;65062;48.446;8.834;2023-04-19T10:55:32;97749.28;;;14.97;56.60
72336;BME280;65062;48.446;8.834;2023-04-19T11:05:08;97739.72;;;15.73;50.53
72336;BME280;65062;48.446;8.834;2023-04-19T11:08:21;97736.66;;;16.07;52.79
72336;BME280;65062;48.446;8.834;2023-04-19T11:11:22;97730.53;;;16.62;50.09
72336;BME280;65062;48.446;8.834;2023-04-19T11:14:25;97723.59;;;16.67;48.60
72336;BME280;65062;48.446;8.834;2023-04-19T11:17:30;97719.19;;;16.61;48.94
72336;BME280;65062;48.446;8.834;2023-04-19T11:20:31;97714.59;;;16.50;48.75
72336;BME280;65062;48.446;8.834;2023-04-19T11:23:31;97702.03;;;16.71;48.73
72336;BME280;65062;48.446;8.834;2023-04-19T11:26:31;97694.72;;;17.38;47.66
72336;BME280;65062;48.446;8.834;2023-04-19T11:29:32;97703.41;;;17.45;48.07
72336;BME280;65062;48.446;8.834;2023-04-19T11:32:33;97696.28;;;17.28;47.94
72336;BME280;65062;48.446;8.834;2023-04-19T11:35:33;97703.91;;;16.63;46.92
72336;BME280;65062;48.446;8.834;2023-04-19T11:38:34;97694.63;;;16.30;49.41
72336;BME280;65062;48.446;8.834;2023-04-19T11:41:37;97682.47;;;15.73;49.84
72336;BME280;65062;48.446;8.834;2023-04-19T11:44:38;97682.56;;;15.60;50.94
72336;BME280;65062;48.446;8.834;2023-04-19T11:47:49;97676.78;;;15.32;49.43
72336;BME280;65062;48.446;8.834;2023-04-19T11:50:56;97675.72;;;14.96;53.49
72336;BME280;65062;48.446;8.834;2023-04-19T11:53:57;97682.34;;;14.34;51.93
72336;BME280;65062;48.446;8.834;2023-04-19T11:57:04;97685.34;;;14.12;54.69
72336;BME280;65062;48.446;8.834;2023-04-19T12:00:07;97689.38;;;13.75;57.21
72336;BME280;65062;48.446;8.834;2023-04-19T12:03:11;97682.44;;;13.42;58.45
72336;BME280;65062;48.446;8.834;2023-04-19T12:06:14;97678.50;;;13.18;59.55
72336;BME280;65062;48.446;8.834;2023-04-19T12:09:19;97680.66;;;13.02;59.62
72336;BME280;65062;48.446;8.834;2023-04-19T12:12:32;97681.88;;;12.99;60.32
72336;BME280;65062;48.446;8.834;2023-04-19T12:15:42;97681.72;;;12.73;60.31
72336;BME280;65062;48.446;8.834;2023-04-19T12:18:50;97675.97;;;12.56;60.58
72336;BME280;65062;48.446;8.834;2023-04-19T12:21:50;97682.94;;;12.43;60.95
72336;BME280;65062;48.446;8.834;2023-04-19T12:24:52;97680.22;;;12.30;62.76
72336;BME280;65062;48.446;8.834;2023-04-19T12:27:52;97675.91;;;12.16;62.06
72336;BME280;65062;48.446;8.834;2023-04-19T12:30:52;97682.91;;;12.09;62.30
72336;BME280;65062;48.446;8.834;2023-04-19T12:33:53;97682.09;;;12.08;62.47
72336;BME280;65062;48.446;8.834;2023-04-19T12:36:54;97676.97;;;12.00;63.24
72336;BME280;65062;48.446;8.834;2023-04-19T12:39:54;97673.97;;;12.03;61.42
72336;BME280;65062;48.446;8.834;2023-04-19T12:42:55;97676.78;;;12.02;63.39
72336;BME280;65062;48.446;8.834;2023-04-19T12:45:55;97668.31;;;12.00;62.02
72336;BME280;65062;48.446;8.834;2023-04-19T12:48:57;97664.13;;;12.05;62.87
72336;BME280;65062;48.446;8.834;2023-04-19T12:51:57;97659.44;;;12.01;61.91
72336;BME280;65062;48.446;8.834;2023-04-19T12:54:57;97656.44;;;12.04;61.15
72336;BME280;65062;48.446;8.834;2023-04-19T12:57:58;97663.06;;;12.00;61.02
72336;BME280;65062;48.446;8.834;2023-04-19T13:00:58;97660.19;;;11.95;62.62
72336;BME280;65062;48.446;8.834;2023-04-19T13:03:58;97658.78;;;11.92;62.31
72336;BME280;65062;48.446;8.834;2023-04-19T13:06:59;97662.38;;;11.91;63.27
72336;BME280;65062;48.446;8.834;2023-04-19T13:09:59;97662.81;;;11.95;63.27
72336;BME280;65062;48.446;8.834;2023-04-19T13:13:00;97655.59;;;11.97;62.83
72336;BME280;65062;48.446;8.834;2023-04-19T13:16:00;97656.34;;;11.91;64.58
72336;BME280;65062;48.446;8.834;2023-04-19T13:19:00;97661.59;;;11.91;64.87
72336;BME280;65062;48.446;8.834;2023-04-19T13:22:01;97652.91;;;11.69;65.73
72336;BME280;65062;48.446;8.834;2023-04-19T13:25:01;97653.22;;;11.60;66.58
72336;BME280;65062;48.446;8.834;2023-04-19T13:28:02;97655.09;;;11.66;66.47
72336;BME280;65062;48.446;8.834;2023-04-19T13:31:03;97654.59;;;11.77;66.16
72336;BME280;65062;48.446;8.834;2023-04-19T13:34:04;97650.09;;;11.71;65.04
72336;BME280;65062;48.446;8.834;2023-04-19T13:37:05;97652.19;;;11.61;66.41
72336;BME280;65062;48.446;8.834;2023-04-19T13:40:06;97648.97;;;11.59;65.83
72336;BME280;65062;48.446;8.834;2023-04-19T13:43:07;97649.13;;;11.72;65.07
72336;BME280;65062;48.446;8.834;2023-04-19T13:46:07;97644.81;;;11.64;66.48
72336;BME280;65062;48.446;8.834;2023-04-19T13:49:08;97637.78;;;11.50;65.38
72336;BME280;65062;48.446;8.834;2023-04-19T13:52:08;97634.66;;;11.40;66.98
72336;BME280;65062;48.446;8.834;2023-04-19T13:55:10;97644.03;;;11.49;65.74
72336;BME280;65062;48.446;8.834;2023-04-19T13:58:10;97644.09;;;11.56;67.38
72336;BME280;65062;48.446;8.834;2023-04-19T14:01:10;97637.72;;;11.44;67.04
72336;BME280;65062;48.446;8.834;2023-04-19T14:04:11;97640.47;;;11.36;66.95
72336;BME280;65062;48.446;8.834;2023-04-19T14:07:11;97634.94;;;11.45;67.41
72336;BME280;65062;48.446;8.834;2023-04-19T14:10:12;97631.66;;;11.43;65.99
72336;BME280;65062;48.446;8.834;2023-04-19T14:13:12;97631.41;;;11.38;67.98
72336;BME280;65062;48.446;8.834;2023-04-19T14:16:13;97633.66;;;11.20;68.40
72336;BME280;65062;48.446;8.834;2023-04-19T14:19:13;97623.03;;;11.07;68.69
72336;BME280;65062;48.446;8.834;2023-04-19T14:22:15;97628.88;;;11.09;69.69
72336;BME280;65062;48.446;8.834;2023-04-19T14:25:15;97634.16;;;10.95;69.83
72336;BME280;65062;48.446;8.834;2023-04-19T14:28:17;97625.16;;;10.83;70.13
72336;BME280;65062;48.446;8.834;2023-04-19T14:31:17;97620.44;;;10.57;72.14
72336;BME280;65062;48.446;8.834;2023-04-19T14:34:18;97620.97;;;10.52;72.67
72336;BME280;65062;48.446;8.834;2023-04-19T14:37:20;97619.97;;;10.24;73.05
72336;BME280;65062;48.446;8.834;2023-04-19T14:40:21;97618.34;;;10.09;74.54
72336;BME280;65062;48.446;8.834;2023-04-19T14:43:21;97609.06;;;10.06;75.11
72336;BME280;65062;48.446;8.834;2023-04-19T14:46:22;97616.00;;;10.14;75.38
72336;BME280;65062;48.446;8.834;2023-04-19T14:49:22;97611.63;;;9.92;76.73
72336;BME280;65062;48.446;8.834;2023-04-19T14:52:22;97612.06;;;9.81;77.72
72336;BME280;65062;48.446;8.834;2023-04-19T14:55:23;97609.72;;;9.86;77.30
72336;BME280;65062;48.446;8.834;2023-04-19T14:58:26;97611.63;;;9.92;78.95
72336;BME280;65062;48.446;8.834;2023-04-19T15:01:26;97610.34;;;9.73;79.31
72336;BME280;65062;48.446;8.834;2023-04-19T15:04:26;97618.00;;;9.75;79.83
72336;BME280;65062;48.446;8.834;2023-04-19T15:07:27;97613.53;;;9.61;80.85
72336;BME280;65062;48.446;8.834;2023-04-19T15:10:27;97610.56;;;9.64;80.59
72336;BME280;65062;48.446;8.834;2023-04-19T15:13:27;97608.22;;;9.54;80.23
72336;BME280;65062;48.446;8.834;2023-04-19T15:16:28;97613.66;;;9.45;80.54
72336;BME280;65062;48.446;8.834;2023-04-19T15:19:29;97613.78;;;9.51;80.25
72336;BME280;65062;48.446;8.834;2023-04-19T15:22:31;97607.03;;;9.57;79.36
72336;BME280;65062;48.446;8.834;2023-04-19T15:25:33;97604.66;;;9.47;79.97
72336;BME280;65062;48.446;8.834;2023-04-19T15:28:33;97605.47;;;9.48;80.30
72336;BME280;65062;48.446;8.834;2023-04-19T15:31:35;97606.66;;;9.45;80.04
72336;BME280;65062;48.446;8.834;2023-04-19T15:34:35;97604.13;;;9.52;80.66
72336;BME280;65062;48.446;8.834;2023-04-19T15:37:35;97595.34;;;9.53;81.06
72336;BME280;65062;48.446;8.834;2023-04-19T15:40:37;97597.34;;;9.43;80.71
72336;BME280;65062;48.446;8.834;2023-04-19T15:43:37;97597.28;;;9.51;80.77
72336;BME280;65062;48.446;8.834;2023-04-19T15:46:38;97595.16;;;9.54;81.73
72336;BME280;65062;48.446;8.834;2023-04-19T15:49:38;97605.19;;;9.43;81.11
72336;BME280;65062;48.446;8.834;2023-04-19T15:52:39;97601.13;;;9.40;80.60
72336;BME280;65062;48.446;8.834;2023-04-19T15:55:40;97598.25;;;9.35;82.30
72336;BME280;65062;48.446;8.834;2023-04-19T15:58:40;97598.06;;;9.37;81.39
72336;BME280;65062;48.446;8.834;2023-04-19T16:01:41;97599.63;;;9.23;78.86
72336;BME280;65062;48.446;8.834;2023-04-19T16:04:41;97600.88;;;9.05;79.39
72336;BME280;65062;48.446;8.834;2023-04-19T16:07:44;97602.75;;;8.96;80.40
72336;BME280;65062;48.446;8.834;2023-04-19T16:10:45;97605.59;;;8.87;79.87
72336;BME280;65062;48.446;8.834;2023-04-19T16:13:46;97607.06;;;8.81;80.04
72336;BME280;65062;48.446;8.834;2023-04-19T16:16:47;97610.34;;;8.83;80.60
72336;BME280;65062;48.446;8.834;2023-04-19T16:19:47;97615.22;;;8.86;81.11